Pagina principale
METAR-TAF:

METAR-TAF

Aeroporti :

Corinth, Mississippi, Stati Uniti

latitudine: 34-54-54N, longitudine: 088-36-13W, altezza: 130 m

Osservazione

Il bollettino è stato emesso 10 minuti fa, alle 23:35 UTC
Vento 4 kt da sud/sud-ovest
Temperature 21°C
Umidità 38%
Pressione 1018 hPa
Visibilità: 16.1 km
Nuvoloso ad un'altezza di 7000 ft
Nuvoloso ad un'altezza di 8000 ft
Nuvoloso ad un'altezza di 12000 ft

METAR: KCRX 242335Z AUTO 20004KT 10SM BKN070 BKN080 BKN120 21/06 A3006 RMK AO2

Ora: 18:45 (23:45 UTC)


TAF: mancante

Osservazioni e previsioni meteorologiche di più di 4000 aeroporti (messaggi METAR e TAF).

Le stazioni disponibili sono rappresentate dai dischi gialli e rossi sulla carta.

Puntare il mouse per vedere il nome della stazione.

Clicca sopra per visualizzare le osservazioni e previsioni meteorologiche.

Per cambiare la mappa : fare clic sui pulsanti verdi con una croce nera per ingrandire, il pulsante verde con un trattino per diminuire, o sulla freccia verde per le mappe adiacenti.


METAR-TAF: